Time;durP1;ratioP1;P1;durP2;ratioP2;P2;SDS_P1;SDS_P2;PMS_P1;PMS_P2;Temp;Humidity;BMP_temperature;BMP_pressure;BME280_temperature;BME280_humidity;BME280_pressure;Samples;Min_cycle;Max_cycle;Signal;HPM_P1;HPM_P2
2022/03/27 00:00:35;;;;;;;3.93;3.47;;;4.20;99.90;;;;;;7379922;19;20436;-63
2022/03/27 00:03:01;;;;;;;3.58;3.22;;;4.10;99.90;;;;;;7377358;19;20333;-63
2022/03/27 00:05:27;;;;;;;3.53;3.22;;;4.00;99.90;;;;;;7375740;19;20921;-64
2022/03/27 00:07:53;;;;;;;4.20;3.45;;;4.00;99.90;;;;;;7374342;19;20349;-63
2022/03/27 00:10:18;;;;;;;4.70;4.00;;;4.00;99.90;;;;;;7377250;19;20351;-63
2022/03/27 00:12:44;;;;;;;3.75;3.35;;;4.00;99.90;;;;;;7376620;19;20980;-63
2022/03/27 00:15:10;;;;;;;3.50;3.20;;;4.00;99.90;;;;;;7375962;19;20348;-63
2022/03/27 00:17:36;;;;;;;5.07;3.63;;;3.90;99.90;;;;;;7374091;19;20360;-63
2022/03/27 00:20:08;;;;;;;3.78;3.30;;;3.90;99.90;;;;;;7378662;19;20954;-63
2022/03/27 00:22:34;;;;;;;4.22;3.72;;;3.90;99.90;;;;;;7374271;19;20336;-64
2022/03/27 00:25:00;;;;;;;3.92;3.53;;;3.90;99.90;;;;;;7373966;19;20412;-63
2022/03/27 00:27:26;;;;;;;3.53;3.22;;;3.90;99.90;;;;;;7374534;19;20404;-63
2022/03/27 00:29:52;;;;;;;3.60;3.30;;;3.90;99.90;;;;;;7370994;19;20888;-63
2022/03/27 00:32:18;;;;;;;4.13;3.55;;;3.90;99.90;;;;;;7371841;19;20323;-63
2022/03/27 00:34:43;;;;;;;3.37;3.07;;;3.80;99.90;;;;;;7357494;19;20308;-63
2022/03/27 00:37:09;;;;;;;3.55;3.25;;;3.80;99.90;;;;;;7375840;19;20324;-63
2022/03/27 00:39:34;;;;;;;3.70;3.35;;;3.80;99.90;;;;;;7374893;19;20380;-63
2022/03/27 00:42:00;;;;;;;3.63;3.20;;;3.80;99.90;;;;;;7373976;19;20325;-63
2022/03/27 00:44:26;;;;;;;4.07;3.45;;;3.70;99.90;;;;;;7373700;19;20336;-63
2022/03/27 00:46:52;;;;;;;3.53;3.22;;;3.60;99.90;;;;;;7375823;19;20324;-64
2022/03/27 00:49:18;;;;;;;3.80;3.50;;;3.70;99.90;;;;;;7374040;19;21252;-63
2022/03/27 00:51:43;;;;;;;3.97;3.57;;;3.60;99.90;;;;;;7374797;19;20320;-63
2022/03/27 00:54:09;;;;;;;4.00;3.60;;;3.50;99.90;;;;;;7377334;19;20293;-64
2022/03/27 00:56:35;;;;;;;3.55;3.25;;;3.50;99.90;;;;;;7377225;19;20313;-63
2022/03/27 00:59:01;;;;;;;3.70;2.90;;;3.40;99.90;;;;;;7374764;19;20312;-64
2022/03/27 01:01:37;;;;;;;4.30;3.50;;;3.40;99.90;;;;;;7378387;19;20296;-63
2022/03/27 01:04:04;;;;;;;3.67;3.10;;;3.40;99.90;;;;;;7381465;19;20332;-63
2022/03/27 01:06:41;;;;;;;3.40;3.10;;;3.40;99.90;;;;;;7378010;19;20334;-63
2022/03/27 01:11:56;;;;;;;3.35;3.05;;;3.40;99.90;;;;;;7373676;19;20341;-63
2022/03/27 01:14:32;;;;;;;3.42;3.13;;;3.30;99.90;;;;;;7376496;19;20661;-63
2022/03/27 01:17:07;;;;;;;3.55;3.22;;;3.20;99.90;;;;;;7376035;19;21317;-63
2022/03/27 01:19:34;;;;;;;3.88;3.42;;;3.20;99.90;;;;;;7374177;19;20349;-63
2022/03/27 01:22:00;;;;;;;4.10;3.28;;;3.10;99.90;;;;;;7375176;19;20497;-63
2022/03/27 01:24:26;;;;;;;3.42;3.13;;;3.10;99.90;;;;;;7377367;19;20359;-63
2022/03/27 01:26:51;;;;;;;3.90;3.50;;;3.00;99.90;;;;;;7375025;19;20934;-64
2022/03/27 01:29:17;;;;;;;3.30;3.00;;;3.00;99.90;;;;;;7373876;19;20355;-63
2022/03/27 01:31:43;;;;;;;3.08;2.78;;;2.90;99.90;;;;;;7372528;19;20318;-64
2022/03/27 01:34:08;;;;;;;3.50;3.20;;;2.90;99.90;;;;;;7381065;19;20300;-63
2022/03/27 01:36:35;;;;;;;3.03;2.72;;;2.80;99.90;;;;;;7381910;19;20292;-64
2022/03/27 01:39:05;;;;;;;3.00;2.47;;;2.80;99.90;;;;;;7379830;19;20435;-63
2022/03/27 01:41:30;;;;;;;2.65;2.40;;;2.60;99.90;;;;;;7382677;19;20711;-63
2022/03/27 01:43:56;;;;;;;2.30;2.10;;;2.60;99.90;;;;;;7382294;19;20337;-63
2022/03/27 01:46:22;;;;;;;2.67;2.47;;;2.60;99.90;;;;;;7381266;19;20308;-63
2022/03/27 01:48:48;;;;;;;3.03;2.73;;;2.60;99.90;;;;;;7379403;19;20380;-63
2022/03/27 01:51:13;;;;;;;3.03;2.72;;;2.50;99.90;;;;;;7383322;19;20926;-63
2022/03/27 01:53:39;;;;;;;2.87;2.60;;;2.50;99.90;;;;;;7379621;19;21019;-64
2022/03/27 01:56:05;;;;;;;2.90;2.70;;;2.50;99.90;;;;;;7382462;19;20660;-63
2022/03/27 01:58:31;;;;;;;2.95;2.65;;;2.50;99.90;;;;;;7378262;19;20419;-63
2022/03/27 02:00:56;;;;;;;2.50;2.30;;;2.50;99.90;;;;;;7381508;19;20944;-64
2022/03/27 02:03:27;;;;;;;3.28;2.97;;;2.50;99.90;;;;;;7381025;19;20323;-63
2022/03/27 02:05:53;;;;;;;3.97;3.47;;;2.50;99.90;;;;;;7387597;19;20304;-64
2022/03/27 02:08:19;;;;;;;3.00;2.80;;;2.30;99.90;;;;;;7381957;19;20829;-63
2022/03/27 02:10:45;;;;;;;3.27;2.93;;;2.20;99.90;;;;;;7382129;19;20320;-63
2022/03/27 02:13:14;;;;;;;3.67;2.90;;;2.20;99.90;;;;;;7382169;19;20308;-63
2022/03/27 02:15:40;;;;;;;3.88;3.42;;;2.20;99.90;;;;;;7380362;19;20424;-64
2022/03/27 02:18:06;;;;;;;3.30;3.00;;;2.20;99.90;;;;;;7378280;19;20312;-63
2022/03/27 02:20:32;;;;;;;4.32;3.20;;;2.20;99.90;;;;;;7376899;19;20337;-63
2022/03/27 02:22:58;;;;;;;3.83;3.35;;;2.10;99.90;;;;;;7382064;19;20317;-63
2022/03/27 02:25:23;;;;;;;3.63;3.33;;;2.10;99.90;;;;;;7384178;19;20425;-64
2022/03/27 02:27:49;;;;;;;5.25;4.07;;;2.00;99.90;;;;;;7377453;19;20355;-63
2022/03/27 02:30:15;;;;;;;4.35;3.58;;;2.00;99.90;;;;;;7382058;19;20304;-63
2022/03/27 02:32:41;;;;;;;4.85;3.75;;;2.00;99.90;;;;;;7380363;19;21240;-63
2022/03/27 02:35:07;;;;;;;4.63;3.10;;;2.00;99.90;;;;;;7383709;19;20327;-63
2022/03/27 02:37:32;;;;;;;6.33;3.90;;;2.00;99.90;;;;;;7378063;19;20321;-64
2022/03/27 02:39:58;;;;;;;4.97;4.10;;;2.00;99.90;;;;;;7375817;19;20317;-62
2022/03/27 02:42:23;;;;;;;7.07;4.50;;;2.00;99.90;;;;;;7380975;19;20324;-63
2022/03/27 02:44:49;;;;;;;5.10;4.10;;;2.00;99.90;;;;;;7381258;19;20345;-63
2022/03/27 02:47:16;;;;;;;5.93;4.22;;;1.90;99.90;;;;;;7380019;19;20396;-64
2022/03/27 02:49:41;;;;;;;5.43;4.60;;;1.90;99.90;;;;;;7386864;19;20357;-64
2022/03/27 02:52:07;;;;;;;4.72;4.22;;;2.00;99.90;;;;;;7380223;19;21221;-64
2022/03/27 02:54:32;;;;;;;5.47;4.53;;;1.90;99.90;;;;;;7380588;19;20367;-63
2022/03/27 02:56:58;;;;;;;5.10;4.40;;;1.80;99.90;;;;;;7377544;19;20325;-63
2022/03/27 02:59:25;;;;;;;7.60;5.78;;;1.80;99.90;;;;;;7377391;19;20345;-63
2022/03/27 03:01:51;;;;;;;9.15;5.75;;;1.70;99.90;;;;;;7380684;19;20966;-63
2022/03/27 03:04:17;;;;;;;6.53;5.40;;;1.70;99.90;;;;;;7381396;19;20325;-63
2022/03/27 03:06:43;;;;;;;5.67;4.33;;;1.60;99.90;;;;;;7382340;19;20331;-63
2022/03/27 03:09:10;;;;;;;5.45;4.65;;;1.60;99.90;;;;;;7376961;19;20353;-62
2022/03/27 03:11:36;;;;;;;7.18;4.97;;;1.60;99.90;;;;;;7379320;19;20340;-63
2022/03/27 03:14:01;;;;;;;6.70;5.53;;;1.50;99.90;;;;;;7379275;19;20321;-63
2022/03/27 03:16:27;;;;;;;8.07;4.93;;;1.60;99.90;;;;;;7378703;19;20325;-63
2022/03/27 03:18:53;;;;;;;6.30;4.90;;;1.60;99.90;;;;;;7376096;19;20334;-63
2022/03/27 03:21:19;;;;;;;6.83;4.77;;;1.70;99.90;;;;;;7376845;19;20309;-64
2022/03/27 03:23:44;;;;;;;6.05;4.85;;;1.70;99.90;;;;;;7363598;19;21480;-63
2022/03/27 03:26:10;;;;;;;5.90;4.63;;;1.70;99.90;;;;;;7378419;19;20481;-63
2022/03/27 03:28:37;;;;;;;5.00;4.30;;;1.80;99.90;;;;;;7379245;19;20325;-64
2022/03/27 03:31:02;;;;;;;5.63;4.50;;;1.70;99.90;;;;;;7379176;19;20320;-63
2022/03/27 03:33:28;;;;;;;4.67;4.13;;;1.70;99.90;;;;;;7376820;19;20336;-64
2022/03/27 03:35:54;;;;;;;4.10;3.60;;;1.50;99.90;;;;;;7380653;19;20307;-63
2022/03/27 03:38:20;;;;;;;3.70;3.40;;;1.50;99.90;;;;;;7375970;19;20324;-63
2022/03/27 03:40:46;;;;;;;3.40;3.10;;;1.50;99.90;;;;;;7381046;19;20353;-63
2022/03/27 03:43:11;;;;;;;3.50;3.17;;;1.50;99.90;;;;;;7374689;19;20311;-63
2022/03/27 03:45:37;;;;;;;4.07;3.47;;;1.50;99.90;;;;;;7376531;19;20324;-62
2022/03/27 03:48:04;;;;;;;3.15;2.85;;;1.40;99.90;;;;;;7378952;19;20340;-65
2022/03/27 03:50:30;;;;;;;3.60;3.30;;;1.40;99.90;;;;;;7381158;19;20873;-63
2022/03/27 03:52:56;;;;;;;3.33;3.03;;;1.40;99.90;;;;;;7375089;19;20317;-63
2022/03/27 03:55:22;;;;;;;3.40;3.10;;;1.50;99.90;;;;;;7378915;19;20324;-62
2022/03/27 03:57:47;;;;;;;3.43;3.13;;;1.40;99.90;;;;;;7372562;19;20463;-64
2022/03/27 04:00:13;;;;;;;4.80;4.00;;;1.40;99.90;;;;;;7379191;19;20384;-63
2022/03/27 04:02:39;;;;;;;4.55;3.85;;;1.30;99.90;;;;;;7377968;19;20319;-63
2022/03/27 04:05:05;;;;;;;4.27;3.83;;;1.30;99.90;;;;;;7377931;19;20312;-63
2022/03/27 04:07:31;;;;;;;4.40;4.00;;;1.30;99.90;;;;;;7376980;19;20384;-63
2022/03/27 04:09:57;;;;;;;4.45;3.92;;;1.40;99.90;;;;;;7380928;19;20337;-63
2022/03/27 04:12:22;;;;;;;4.43;3.63;;;1.40;99.90;;;;;;7378080;19;20321;-64
2022/03/27 04:14:48;;;;;;;3.78;3.45;;;1.40;99.90;;;;;;7378493;19;20324;-63
2022/03/27 04:17:14;;;;;;;4.43;3.72;;;1.50;99.90;;;;;;7376654;19;20337;-63
2022/03/27 04:19:40;;;;;;;3.90;3.27;;;1.50;99.90;;;;;;7379992;19;20881;-63
2022/03/27 04:22:07;;;;;;;3.30;3.00;;;1.50;99.90;;;;;;7380104;19;20321;-63
2022/03/27 04:24:33;;;;;;;3.42;3.13;;;1.50;99.90;;;;;;7377720;19;21092;-63
2022/03/27 04:26:58;;;;;;;3.58;3.28;;;1.50;99.90;;;;;;7376132;19;20422;-63
2022/03/27 04:29:24;;;;;;;3.60;3.30;;;1.50;99.90;;;;;;7376952;19;20308;-63
2022/03/27 04:31:51;;;;;;;4.07;3.50;;;1.50;99.90;;;;;;7377950;19;20433;-63
2022/03/27 04:34:16;;;;;;;4.50;3.40;;;1.60;99.90;;;;;;7380778;19;20392;-63
2022/03/27 04:36:42;;;;;;;4.40;3.53;;;1.60;99.90;;;;;;7378822;19;20380;-63
2022/03/27 04:39:08;;;;;;;4.03;3.47;;;1.60;99.90;;;;;;7373611;19;20324;-64
2022/03/27 04:41:34;;;;;;;4.38;3.75;;;1.50;99.90;;;;;;7374271;19;20904;-63
2022/03/27 04:43:59;;;;;;;3.67;3.38;;;1.60;99.90;;;;;;7375852;19;20345;-63
2022/03/27 04:46:25;;;;;;;3.50;3.20;;;1.60;99.90;;;;;;7376034;19;20871;-63
2022/03/27 04:48:51;;;;;;;3.97;3.58;;;1.60;99.90;;;;;;7374034;19;20312;-64
2022/03/27 04:51:16;;;;;;;4.47;3.60;;;1.60;99.90;;;;;;7375879;19;20358;-64
2022/03/27 04:53:42;;;;;;;3.77;3.43;;;1.60;99.90;;;;;;7375807;19;20312;-64
2022/03/27 04:56:08;;;;;;;3.40;3.10;;;1.60;99.90;;;;;;7376435;19;20339;-63
2022/03/27 04:58:34;;;;;;;3.53;3.22;;;1.60;99.90;;;;;;7375181;19;20414;-63
2022/03/27 05:01:00;;;;;;;3.90;3.60;;;1.60;99.90;;;;;;7379232;19;20431;-63
2022/03/27 05:03:25;;;;;;;3.70;3.40;;;1.60;99.90;;;;;;7374753;19;20778;-63
2022/03/27 05:05:51;;;;;;;3.90;3.50;;;1.60;99.90;;;;;;7377596;19;20337;-63
2022/03/27 05:08:17;;;;;;;3.80;3.40;;;1.70;99.90;;;;;;7372296;19;20404;-63
2022/03/27 05:10:43;;;;;;;3.72;3.40;;;1.70;99.90;;;;;;7370512;19;20367;-63
2022/03/27 05:13:08;;;;;;;4.40;4.00;;;1.80;99.90;;;;;;7379373;19;20304;-64
2022/03/27 05:15:34;;;;;;;4.57;4.18;;;1.80;99.90;;;;;;7377951;19;20293;-64
2022/03/27 05:18:01;;;;;;;4.20;3.80;;;1.80;99.90;;;;;;7374225;19;20312;-64
2022/03/27 05:20:28;;;;;;;4.20;3.80;;;1.70;99.90;;;;;;7376781;19;20385;-64
2022/03/27 05:22:54;;;;;;;4.60;4.20;;;1.70;99.90;;;;;;7374491;19;20723;-64
2022/03/27 05:25:20;;;;;;;4.05;3.70;;;1.90;99.90;;;;;;7375422;19;20932;-63
2022/03/27 05:27:47;;;;;;;3.95;3.65;;;1.90;99.90;;;;;;7373398;19;20324;-64
2022/03/27 05:30:21;;;;;;;5.35;4.32;;;2.00;99.90;;;;;;7375994;19;20313;-64
2022/03/27 05:32:47;;;;;;;4.47;4.07;;;2.00;99.90;;;;;;7375572;19;20957;-64
2022/03/27 05:35:13;;;;;;;4.50;4.10;;;2.00;99.90;;;;;;7376578;19;20356;-63
2022/03/27 05:37:40;;;;;;;5.05;4.40;;;1.90;99.90;;;;;;7373780;19;20312;-64
2022/03/27 05:40:06;;;;;;;6.13;4.80;;;1.80;99.90;;;;;;7373750;19;20329;-64
2022/03/27 05:42:32;;;;;;;5.55;4.38;;;1.70;99.90;;;;;;7374589;19;20340;-62
2022/03/27 05:44:59;;;;;;;5.70;4.70;;;1.60;99.90;;;;;;7375671;19;20328;-63
2022/03/27 05:47:25;;;;;;;4.03;3.63;;;1.50;99.90;;;;;;7371639;19;21067;-63
2022/03/27 05:49:51;;;;;;;4.45;4.03;;;1.50;99.90;;;;;;7367699;19;20313;-65
2022/03/27 05:52:17;;;;;;;4.00;3.67;;;1.50;99.90;;;;;;7373492;19;20400;-63
2022/03/27 05:54:43;;;;;;;6.20;4.50;;;1.50;99.90;;;;;;7373785;19;20369;-63
2022/03/27 05:57:08;;;;;;;5.57;3.83;;;1.50;99.90;;;;;;7375787;19;20335;-63
2022/03/27 05:59:34;;;;;;;5.50;4.33;;;1.50;99.90;;;;;;7374165;19;20341;-63
2022/03/27 06:02:00;;;;;;;4.07;3.78;;;1.50;99.90;;;;;;7373559;19;20406;-64
2022/03/27 06:04:26;;;;;;;4.77;3.70;;;1.50;99.90;;;;;;7378517;19;20312;-64
2022/03/27 06:06:52;;;;;;;3.83;3.53;;;1.70;99.90;;;;;;7373973;19;20395;-64
2022/03/27 06:09:18;;;;;;;5.30;4.60;;;1.80;99.90;;;;;;7373232;19;20682;-64
2022/03/27 06:11:43;;;;;;;5.07;4.57;;;1.70;99.90;;;;;;7375866;19;20416;-63
2022/03/27 06:14:09;;;;;;;4.60;4.20;;;1.60;99.90;;;;;;7375090;19;20415;-63
2022/03/27 06:16:35;;;;;;;4.07;3.78;;;1.60;99.90;;;;;;7377847;19;20867;-63
2022/03/27 06:19:00;;;;;;;4.13;3.67;;;1.70;99.90;;;;;;7374318;19;20320;-64
2022/03/27 06:21:26;;;;;;;3.93;3.63;;;1.80;99.90;;;;;;7379975;19;20309;-64
2022/03/27 06:23:52;;;;;;;4.85;4.32;;;2.00;99.90;;;;;;7382579;19;20342;-64
2022/03/27 06:26:17;;;;;;;4.53;4.13;;;2.10;99.90;;;;;;7383049;19;20904;-64
2022/03/27 06:28:43;;;;;;;4.97;4.45;;;2.30;99.90;;;;;;7376360;19;21003;-65
2022/03/27 06:31:08;;;;;;;4.90;4.50;;;2.50;99.90;;;;;;7382065;19;20324;-64
2022/03/27 06:33:34;;;;;;;5.45;4.88;;;2.60;99.90;;;;;;7381951;19;20388;-64
2022/03/27 06:36:01;;;;;;;5.72;4.60;;;2.60;99.90;;;;;;7383030;19;20660;-64
2022/03/27 06:38:28;;;;;;;4.65;4.18;;;2.70;99.90;;;;;;7379871;19;20353;-64
2022/03/27 06:40:55;;;;;;;4.97;4.47;;;2.80;99.90;;;;;;7381345;19;20332;-63
2022/03/27 06:43:22;;;;;;;5.28;4.78;;;2.80;99.90;;;;;;7378404;19;20329;-64
2022/03/27 06:45:51;;;;;;;4.87;4.37;;;2.80;99.90;;;;;;7380932;19;20408;-64
2022/03/27 06:48:17;;;;;;;6.70;4.68;;;3.00;99.90;;;;;;7374492;19;20344;-64
2022/03/27 06:50:44;;;;;;;4.72;4.32;;;3.00;99.90;;;;;;7382700;19;21251;-63
2022/03/27 06:53:10;;;;;;;4.60;4.10;;;3.10;99.90;;;;;;7375521;19;20321;-64
2022/03/27 06:55:37;;;;;;;4.72;4.25;;;3.20;99.90;;;;;;7380011;19;20300;-64
2022/03/27 06:58:03;;;;;;;5.60;4.10;;;3.30;99.90;;;;;;7379147;19;20316;-64
2022/03/27 07:03:13;;;;;;;4.72;4.25;;;3.50;99.90;;;;;;7380588;19;20325;-64
2022/03/27 07:05:39;;;;;;;6.63;5.07;;;3.60;99.90;;;;;;7382093;19;20826;-65
2022/03/27 07:08:19;;;;;;;4.75;4.35;;;3.70;99.90;;;;;;7380343;19;20367;-64
2022/03/27 07:10:46;;;;;;;4.60;4.20;;;3.80;99.90;;;;;;7279053;19;2004535;-64
2022/03/27 07:13:12;;;;;;;4.25;3.85;;;3.90;99.90;;;;;;7377570;19;20315;-64
2022/03/27 07:15:38;;;;;;;5.00;4.50;;;4.00;99.90;;;;;;7378973;19;20313;-63
2022/03/27 07:18:05;;;;;;;4.15;3.70;;;4.20;99.90;;;;;;7380187;19;20321;-64
2022/03/27 07:20:32;;;;;;;5.07;4.28;;;4.40;99.90;;;;;;7384589;19;20332;-63
2022/03/27 07:23:02;;;;;;;4.50;4.07;;;4.50;99.90;;;;;;7378913;19;20317;-64
2022/03/27 07:25:29;;;;;;;5.05;4.18;;;4.60;99.90;;;;;;7378469;19;20334;-64
2022/03/27 07:27:55;;;;;;;5.10;4.60;;;4.70;99.90;;;;;;7376556;19;20345;-64
2022/03/27 07:30:21;;;;;;;6.50;5.50;;;4.80;99.90;;;;;;7378039;19;20324;-64
2022/03/27 07:32:47;;;;;;;7.40;4.97;;;4.80;99.90;;;;;;7375829;19;20328;-64
2022/03/27 07:35:17;;;;;;;5.83;5.30;;;4.90;99.90;;;;;;7380412;19;20406;-64
2022/03/27 07:37:43;;;;;;;6.18;5.50;;;5.10;99.90;;;;;;7374855;19;20348;-64
2022/03/27 07:40:09;;;;;;;6.97;5.53;;;5.30;99.90;;;;;;7381393;19;20328;-64
2022/03/27 07:42:36;;;;;;;6.88;5.75;;;5.30;99.90;;;;;;7377893;19;20335;-64
2022/03/27 07:45:03;;;;;;;5.97;5.38;;;5.40;99.90;;;;;;7380549;19;20408;-65
2022/03/27 07:47:28;;;;;;;6.00;5.40;;;5.50;99.90;;;;;;7377032;19;20445;-65
2022/03/27 07:49:54;;;;;;;6.40;5.80;;;5.60;99.90;;;;;;7378939;19;21208;-64
2022/03/27 07:52:20;;;;;;;10.47;6.73;;;5.80;99.90;;;;;;7380740;19;20665;-64
2022/03/27 07:54:46;;;;;;;8.17;7.13;;;5.90;99.90;;;;;;7378319;19;20312;-64
2022/03/27 07:57:13;;;;;;;7.80;6.67;;;6.00;99.90;;;;;;7376867;19;20328;-64
2022/03/27 07:59:38;;;;;;;7.25;6.38;;;6.10;99.90;;;;;;7360569;19;20345;-64
2022/03/27 08:02:04;;;;;;;7.10;5.97;;;6.20;99.90;;;;;;7377233;19;20325;-65
2022/03/27 08:04:30;;;;;;;7.47;6.57;;;6.30;99.90;;;;;;7382548;19;20312;-65
2022/03/27 08:06:55;;;;;;;7.95;6.35;;;6.40;99.90;;;;;;7380195;19;20367;-65
2022/03/27 08:09:22;;;;;;;8.67;7.20;;;6.50;99.90;;;;;;7373013;19;20330;-64
2022/03/27 08:11:47;;;;;;;10.47;7.33;;;6.70;99.90;;;;;;7374862;19;20349;-65
2022/03/27 08:14:13;;;;;;;9.77;7.57;;;6.80;99.90;;;;;;7378197;19;20308;-63
2022/03/27 08:16:39;;;;;;;9.88;6.95;;;7.00;99.90;;;;;;7377191;19;21065;-64
2022/03/27 08:19:04;;;;;;;10.33;8.57;;;7.10;99.90;;;;;;7377650;19;20324;-65
2022/03/27 08:21:30;;;;;;;10.10;8.10;;;7.10;99.90;;;;;;7386347;19;20321;-65
2022/03/27 08:23:56;;;;;;;11.02;7.93;;;7.20;99.90;;;;;;7379418;19;20352;-65
2022/03/27 08:29:06;;;;;;;10.82;7.45;;;7.30;99.90;;;;;;7377392;19;20343;-64
2022/03/27 08:31:32;;;;;;;10.18;6.85;;;7.50;99.90;;;;;;7377242;19;20352;-64
2022/03/27 08:33:58;;;;;;;14.20;10.63;;;7.60;99.90;;;;;;7377352;19;20715;-65
2022/03/27 08:36:23;;;;;;;11.60;9.90;;;7.80;99.90;;;;;;7377314;19;20343;-65
2022/03/27 08:38:49;;;;;;;12.63;10.13;;;7.80;99.90;;;;;;7375237;19;20312;-65
2022/03/27 08:41:15;;;;;;;11.75;9.43;;;7.80;99.90;;;;;;7376552;19;20363;-64
2022/03/27 08:43:41;;;;;;;11.57;8.63;;;7.90;99.90;;;;;;7371992;19;20351;-64
2022/03/27 08:46:07;;;;;;;10.98;9.23;;;8.00;99.90;;;;;;7378609;19;20888;-65
2022/03/27 08:48:33;;;;;;;9.80;8.27;;;8.20;99.90;;;;;;7374301;19;20637;-65
2022/03/27 08:51:05;;;;;;;11.02;8.85;;;8.30;99.90;;;;;;7376211;19;20332;-65
2022/03/27 08:53:38;;;;;;;14.20;10.02;;;8.40;99.90;;;;;;7273354;19;2004320;-65
2022/03/27 08:56:07;;;;;;;11.30;9.18;;;8.50;99.90;;;;;;7378522;19;20410;-65
2022/03/27 08:58:37;;;;;;;11.25;8.93;;;8.60;99.90;;;;;;7371805;19;21424;-64
2022/03/27 09:01:04;;;;;;;10.80;8.93;;;8.70;99.90;;;;;;7375005;19;20329;-65
2022/03/27 09:03:31;;;;;;;11.13;9.18;;;8.70;99.90;;;;;;7373318;19;20328;-65
2022/03/27 09:05:59;;;;;;;9.77;8.70;;;8.80;99.90;;;;;;7374121;19;20333;-64
2022/03/27 09:08:25;;;;;;;13.43;9.13;;;8.90;99.90;;;;;;7374331;19;20369;-65
2022/03/27 09:10:50;;;;;;;12.40;9.10;;;9.10;99.90;;;;;;7373458;19;20320;-65
2022/03/27 09:13:17;;;;;;;11.40;8.48;;;9.10;99.90;;;;;;7373391;19;20337;-66
2022/03/27 09:15:43;;;;;;;10.60;8.13;;;9.30;99.90;;;;;;7375075;19;20339;-65
2022/03/27 09:18:13;;;;;;;9.27;8.25;;;9.30;99.90;;;;;;7373192;19;20911;-65
2022/03/27 09:20:38;;;;;;;10.90;8.32;;;9.50;99.90;;;;;;7370696;19;20336;-65
2022/03/27 09:23:22;;;;;;;9.43;8.03;;;9.50;99.90;;;;;;7379635;19;21152;-66
2022/03/27 09:26:02;;;;;;;16.20;14.13;;;9.60;99.90;;;;;;7375257;19;20313;-65
2022/03/27 09:28:39;;;;;;;69.82;58.50;;;9.80;99.90;;;;;;7372390;19;20316;-65
2022/03/27 09:31:14;;;;;;;10.27;7.55;;;9.90;99.90;;;;;;7374413;19;20317;-69
2022/03/27 09:33:48;;;;;;;18.70;12.85;;;10.10;99.90;;;;;;7374965;19;20348;-66
2022/03/27 09:36:16;;;;;;;9.65;7.95;;;10.20;99.90;;;;;;7375800;19;20333;-69
2022/03/27 09:38:55;;;;;;;9.88;6.75;;;10.40;99.90;;;;;;7374487;19;20361;-66
2022/03/27 09:41:40;;;;;;;12.50;9.35;;;10.60;99.90;;;;;;7270735;19;2005322;-66
2022/03/27 09:44:11;;;;;;;18.75;12.55;;;10.80;99.90;;;;;;7271064;19;2004473;-67
2022/03/27 09:46:55;;;;;;;38.17;28.50;;;10.90;99.90;;;;;;7379256;19;20416;-65
2022/03/27 09:49:46;;;;;;;8.23;6.78;;;11.10;99.90;;;;;;7269727;19;2004491;-70
2022/03/27 09:52:19;;;;;;;7.40;6.47;;;11.30;99.90;;;;;;7372552;19;20827;-67
2022/03/27 09:55:01;;;;;;;9.93;7.03;;;11.40;99.90;;;;;;7373141;19;20352;-66
2022/03/27 09:57:30;;;;;;;7.47;5.68;;;11.50;99.90;;;;;;7381169;19;20358;-67
2022/03/27 09:59:57;;;;;;;5.67;5.07;;;11.60;99.90;;;;;;7383671;19;20362;-69
2022/03/27 10:02:30;;;;;;;6.30;5.10;;;11.80;99.90;;;;;;7379415;19;20350;-65
2022/03/27 10:05:04;;;;;;;6.13;4.75;;;12.00;99.90;;;;;;7279502;19;2004458;-69
2022/03/27 10:07:50;;;;;;;8.93;5.72;;;12.20;99.90;;;;;;7378353;19;20312;-66
2022/03/27 10:10:21;;;;;;;6.88;4.97;;;12.40;99.90;;;;;;7268508;19;2004471;-67
2022/03/27 10:12:51;;;;;;;6.00;4.70;;;12.60;99.90;;;;;;7376319;19;20492;-66
2022/03/27 10:15:18;;;;;;;6.13;5.28;;;12.80;99.90;;;;;;7375637;19;20336;-68
2022/03/27 10:17:58;;;;;;;6.57;4.70;;;12.90;99.90;;;;;;7377795;19;20365;-66
2022/03/27 10:20:27;;;;;;;4.65;4.03;;;13.20;99.90;;;;;;7380497;19;20344;-72
2022/03/27 10:23:09;;;;;;;6.70;5.03;;;13.50;99.90;;;;;;7375647;19;20923;-71
2022/03/27 10:25:40;;;;;;;5.28;4.72;;;13.80;99.90;;;;;;7379643;19;21281;-68
2022/03/27 10:28:07;;;;;;;5.45;4.60;;;13.90;99.90;;;;;;7376453;19;20420;-72
2022/03/27 10:30:32;;;;;;;5.22;4.38;;;14.20;99.90;;;;;;7381921;19;20647;-69
2022/03/27 10:32:58;;;;;;;5.30;4.47;;;14.50;99.90;;;;;;7377742;19;20323;-74
2022/03/27 10:35:43;;;;;;;6.57;4.03;;;14.60;99.90;;;;;;7381202;19;20341;-72
2022/03/27 10:38:26;;;;;;;7.10;4.57;;;14.90;99.90;;;;;;7275474;19;2006010;-71
2022/03/27 10:41:14;;;;;;;4.22;3.83;;;15.00;99.90;;;;;;7381963;19;20694;-70
2022/03/27 10:44:17;;;;;;;5.03;3.97;;;15.40;99.90;;;;;;7378872;19;20340;-72
2022/03/27 10:46:46;;;;;;;5.35;3.85;;;15.70;99.90;;;;;;7279912;19;2004585;-69
2022/03/27 10:49:16;;;;;;;3.95;3.30;;;16.00;99.90;;;;;;7372792;19;20844;-71
2022/03/27 10:51:43;;;;;;;5.35;3.78;;;16.10;99.90;;;;;;7381618;19;20396;-70
2022/03/27 10:54:19;;;;;;;6.30;2.97;;;16.30;98.70;;;;;;7379407;19;21196;-73
2022/03/27 10:56:52;;;;;;;3.55;3.17;;;16.60;97.70;;;;;;7381032;19;21008;-71
2022/03/27 10:59:18;;;;;;;3.73;3.30;;;16.60;95.40;;;;;;7374071;19;20321;-69
2022/03/27 11:01:48;;;;;;;3.58;3.17;;;16.40;94.60;;;;;;7380800;19;20351;-69
2022/03/27 11:04:21;;;;;;;3.63;2.80;;;16.40;92.50;;;;;;7381054;19;20396;-69
2022/03/27 11:06:51;;;;;;;3.63;2.40;;;16.60;90.50;;;;;;7379808;19;20935;-73
2022/03/27 11:09:33;;;;;;;6.03;2.90;;;16.80;89.60;;;;;;7358116;19;20382;-69
2022/03/27 11:12:00;;;;;;;2.80;2.50;;;17.00;86.90;;;;;;7378025;19;21090;-69
2022/03/27 11:15:03;;;;;;;2.83;2.10;;;17.20;81.20;;;;;;7381031;19;20330;-69
2022/03/27 11:17:37;;;;;;;2.70;2.45;;;17.30;75.00;;;;;;7275609;19;2004335;-70
2022/03/27 11:20:04;;;;;;;3.33;2.55;;;17.30;67.40;;;;;;7378967;19;20879;-70
2022/03/27 11:22:43;;;;;;;2.63;2.13;;;17.30;63.30;;;;;;7379495;19;20313;-70
2022/03/27 11:25:34;;;;;;;7.65;5.68;;;17.50;65.10;;;;;;7381186;19;20396;-70
2022/03/27 11:28:20;;;;;;;3.42;2.38;;;17.40;59.20;;;;;;7276347;19;2004344;-69
2022/03/27 11:30:54;;;;;;;3.63;2.47;;;17.90;64.40;;;;;;7378028;19;20337;-70
2022/03/27 11:33:29;;;;;;;6.38;4.05;;;18.30;62.20;;;;;;7377997;19;20348;-71
2022/03/27 11:36:01;;;;;;;3.50;2.97;;;18.20;63.20;;;;;;7379848;19;21003;-70
2022/03/27 11:38:51;;;;;;;5.73;3.67;;;17.70;61.20;;;;;;7376111;19;21369;-70
2022/03/27 11:41:43;;;;;;;7.57;3.30;;;18.00;66.20;;;;;;7278195;19;2004610;-70
2022/03/27 11:45:06;;;;;;;4.45;3.13;;;18.10;64.20;;;;;;7277219;19;2004441;-70
2022/03/27 11:47:23;;;;;;;3.17;2.72;;;18.20;64.90;;;;;;7150122;19;2004398;-70
2022/03/27 11:49:50;;;;;;;3.10;2.80;;;18.80;63.00;;;;;;7379452;19;20365;-69
2022/03/27 11:52:17;;;;;;;4.40;2.80;;;18.80;62.70;;;;;;7376193;19;20375;-69
2022/03/27 11:54:43;;;;;;;3.33;2.80;;;19.50;63.70;;;;;;7378368;19;20362;-72
2022/03/27 11:57:09;;;;;;;3.47;2.50;;;20.00;60.60;;;;;;7375023;19;20321;-72
2022/03/27 11:59:46;;;;;;;3.20;2.80;;;20.00;58.30;;;;;;7373561;19;20363;-69
2022/03/27 12:02:11;;;;;;;3.47;2.75;;;19.70;56.00;;;;;;7373621;19;20333;-70
2022/03/27 12:04:50;;;;;;;2.40;2.20;;;19.50;56.60;;;;;;7379368;19;21009;-70
2022/03/27 12:07:15;;;;;;;5.20;2.95;;;19.70;53.60;;;;;;7271257;19;2004467;-70
2022/03/27 12:09:41;;;;;;;3.53;2.43;;;20.10;57.60;;;;;;7379452;19;20361;-70
2022/03/27 12:12:10;;;;;;;3.25;2.20;;;20.50;52.50;;;;;;7376544;19;20332;-70
2022/03/27 12:14:50;;;;;;;2.60;1.80;;;20.90;52.70;;;;;;7380464;19;21815;-70
2022/03/27 12:17:15;;;;;;;3.03;2.15;;;21.10;46.20;;;;;;7271950;19;2005218;-71
2022/03/27 12:19:55;;;;;;;3.20;2.00;;;21.30;47.00;;;;;;7377814;19;21003;-70
2022/03/27 12:23:00;;;;;;;2.30;1.83;;;21.10;45.10;;;;;;7378020;19;20335;-70
2022/03/27 12:25:26;;;;;;;1.90;1.80;;;21.40;48.30;;;;;;7276117;19;2004470;-70
2022/03/27 12:30:46;;;;;;;2.22;2.03;;;22.00;44.30;;;;;;7373918;19;20353;-71
2022/03/27 12:33:12;;;;;;;2.47;1.92;;;21.60;43.80;;;;;;7374510;19;21554;-71
2022/03/27 12:35:37;;;;;;;2.35;1.90;;;21.50;44.40;;;;;;7372220;19;22344;-74
2022/03/27 12:38:03;;;;;;;2.03;1.90;;;22.20;45.40;;;;;;7372943;19;20340;-70
2022/03/27 12:40:29;;;;;;;2.00;1.60;;;22.20;42.40;;;;;;7373258;19;20316;-70
2022/03/27 12:42:56;;;;;;;3.53;2.13;;;22.40;43.20;;;;;;7374789;19;20372;-70
2022/03/27 12:45:35;;;;;;;2.10;1.70;;;22.90;44.10;;;;;;7377901;19;20333;-71
2022/03/27 12:48:17;;;;;;;2.25;2.05;;;22.90;44.00;;;;;;7375055;19;20942;-71
2022/03/27 12:50:47;;;;;;;2.17;1.95;;;22.80;43.50;;;;;;7376180;19;20671;-68
2022/03/27 12:53:13;;;;;;;2.95;2.08;;;22.70;42.70;;;;;;7375063;19;20352;-69
2022/03/27 12:55:52;;;;;;;3.83;2.00;;;22.60;43.00;;;;;;7362960;19;20331;-68
2022/03/27 12:58:35;;;;;;;2.23;2.00;;;22.40;42.70;;;;;;7272697;19;2006013;-68
2022/03/27 13:01:08;;;;;;;2.67;2.28;;;22.40;42.80;;;;;;7376056;19;20436;-68
2022/03/27 13:03:35;;;;;;;2.10;1.95;;;22.90;43.00;;;;;;7377258;19;20317;-70
2022/03/27 13:06:05;;;;;;;2.63;2.28;;;23.60;41.70;;;;;;7376057;19;20833;-68
2022/03/27 13:08:39;;;;;;;2.83;2.20;;;23.00;41.40;;;;;;7371712;19;20451;-69
2022/03/27 13:11:09;;;;;;;2.20;2.00;;;23.60;44.00;;;;;;7378697;19;20986;-69